HomeShort term forecast

Short term forecast

Graphical weather forecast for the next 48 hours for Montreal:
Short term forecast
This weather forecast is automatically refreshed every 3 hours.

Hourly Experimental Forecast for the next 48 hours ®

Overall summary: Mixed precipitation until this afternoon, starting again tomorrow morning, and breezy starting this evening.

 Date & Hour   Temp   Feel   Baro   Hum   Speed & Bearing   Precipitation   Visibility   Cloud cover   Conditions 
 23/01/2018 - 07:00  -1.5°C  -4.7°C  1006.4 hPa  91%  8.4 km/h   0.31 mm/h  11.0km  83%  Light Snow 
 23/01/2018 - 08:00  0.1°C  -3.5°C  1005.2 hPa  92%  11.0 km/h   0.62 mm/h  10.4km  90%  Mostly Cloudy 
 23/01/2018 - 09:00  1.9°C  -1.7°C  1004.0 hPa  92%  13.2 km/h   1.66 mm/h  7.9km  97%  Rain 
 23/01/2018 - 10:00  2.7°C  -0.5°C  1003.1 hPa  93%  12.1 km/h   2.83 mm/h  5.6km  100%  Rain 
 23/01/2018 - 11:00  2.9°C  -0.2°C  1001.6 hPa  93%  11.9 km/h   2.35 mm/h  5.6km  100%  Rain 
 23/01/2018 - 12:00  3.3°C  0.4°C  999.8 hPa  92%  11.3 km/h   1.63 mm/h  5.1km  100%  Rain 
 23/01/2018 - 13:00  3.5°C  0.8°C  998.8 hPa  90%  10.7 km/h   1.13 mm/h  5.0km  94%  Light Rain 
 23/01/2018 - 14:00  3.4°C  1.0°C  997.9 hPa  91%  9.1 km/h   0.77 mm/h  4.4km  89%  Light Rain 
 23/01/2018 - 15:00  3.3°C  1.2°C  997.2 hPa  92%  7.8 km/h   0.68 mm/h  4.4km  88%  Light Rain 
 23/01/2018 - 16:00  3.1°C  1.1°C  996.6 hPa  93%  7.3 km/h   0.68 mm/h  4.5km  94%  Light Rain 
 23/01/2018 - 17:00  3.1°C  1.2°C  996.2 hPa  92%  7.1 km/h   0.60 mm/h  4.8km  96%  Overcast 
 23/01/2018 - 18:00  3.0°C  0.4°C  996.0 hPa  92%  9.4 km/h   0.48 mm/h  4.9km  78%  Mostly Cloudy 
 23/01/2018 - 19:00  3.0°C  -0.2°C  996.0 hPa  91%  12.4 km/h   0.35 mm/h  4.8km  84%  Mostly Cloudy 
 23/01/2018 - 20:00  3.1°C  -1.2°C  995.9 hPa  91%  19.1 km/h   0.25 mm/h  0.5km  100%  Foggy 
 23/01/2018 - 21:00  3.0°C  -2.1°C  996.0 hPa  89%  25.3 km/h   0.11 mm/h  1.4km  100%  Breezy and Foggy 
 23/01/2018 - 22:00  2.8°C  -2.7°C  996.1 hPa  87%  29.1 km/h   0.04 mm/h  4.1km  100%  Breezy and Overcast 
 23/01/2018 - 23:00  2.9°C  -2.7°C  996.0 hPa  86%  29.4 km/h   0.02 mm/h  10.3km  97%  Breezy and Overcast 
 24/01/2018 - 00:00  2.8°C  -2.6°C  995.8 hPa  85%  28.0 km/h   0.02 mm/h  16.1km  94%  Breezy and Overcast 
 24/01/2018 - 01:00  2.3°C  -3.2°C  996.0 hPa  84%  27.4 km/h   0.02 mm/h  16.1km  93%  Breezy and Mostly Cloudy 
 24/01/2018 - 02:00  1.0°C  -5.0°C  996.9 hPa  81%  28.8 km/h   0.06 mm/h  16.1km  93%  Breezy and Mostly Cloudy 
 24/01/2018 - 03:00  -0.9°C  -7.7°C  998.1 hPa  79%  30.8 km/h   0.15 mm/h  16.1km  96%  Breezy and Overcast 
 24/01/2018 - 04:00  -2.9°C  -10.5°C  999.2 hPa  78%  32.7 km/h   0.22 mm/h  16.1km  99%  Possible Light Snow and Breezy 
 24/01/2018 - 05:00  -4.7°C  -12.8°C  1001.4 hPa  77%  32.3 km/h   0.15 mm/h  16.1km  88%  Possible Light Snow and Breezy 
 24/01/2018 - 06:00  -6.4°C  -14.9°C  1004.0 hPa  75%  31.2 km/h   0.06 mm/h  16.1km  72%  Breezy and Mostly Cloudy 
 24/01/2018 - 07:00  -7.7°C  -16.5°C  1006.3 hPa  74%  30.3 km/h   0.02 mm/h  16.1km  59%  Breezy and Partly Cloudy 
 24/01/2018 - 08:00  -8.5°C  -17.5°C  1008.3 hPa  73%  29.3 km/h   0.01 mm/h  16.1km  50%  Breezy and Partly Cloudy 
 24/01/2018 - 09:00  -9.1°C  -18.1°C  1010.0 hPa  74%  28.6 km/h   --  16.1km  42%  Breezy and Partly Cloudy 
 24/01/2018 - 10:00  -9.5°C  -18.5°C  1011.3 hPa  75%  28.1 km/h   --  16.1km  36%  Breezy and Partly Cloudy 
 24/01/2018 - 11:00  -9.6°C  -18.7°C  1012.2 hPa  75%  28.4 km/h   --  16.1km  36%  Breezy and Partly Cloudy 
 24/01/2018 - 12:00  -9.4°C  -18.6°C  1012.8 hPa  74%  28.9 km/h   --  16.1km  39%  Partly Cloudy 
 24/01/2018 - 13:00  -9.0°C  -18.0°C  1013.3 hPa  72%  28.6 km/h   --  16.1km  40%  Partly Cloudy 
 24/01/2018 - 14:00  -8.6°C  -17.1°C  1013.9 hPa  71%  26.4 km/h   --  16.1km  39%  Partly Cloudy 
 24/01/2018 - 15:00  -8.1°C  -16.2°C  1014.6 hPa  69%  23.9 km/h   --  16.1km  36%  Partly Cloudy 
 24/01/2018 - 16:00  -8.2°C  -15.9°C  1015.4 hPa  68%  21.9 km/h   --  16.1km  33%  Partly Cloudy 
 24/01/2018 - 17:00  -8.9°C  -16.6°C  1016.5 hPa  68%  20.8 km/h   --  16.1km  29%  Partly Cloudy 
 24/01/2018 - 18:00  -10.0°C  -17.9°C  1017.8 hPa  68%  20.3 km/h   --  16.1km  25%  Partly Cloudy 
 24/01/2018 - 19:00  -11.0°C  -19.0°C  1018.9 hPa  69%  19.8 km/h   0.01 mm/h  16.1km  20%  Clear 
 24/01/2018 - 20:00  -11.7°C  -19.7°C  1019.6 hPa  68%  18.9 km/h   0.01 mm/h  16.1km  13%  Clear 
 24/01/2018 - 21:00  -12.2°C  -20.1°C  1020.2 hPa  67%  17.9 km/h   0.01 mm/h  16.1km  6%  Clear 
 24/01/2018 - 22:00  -12.6°C  -20.5°C  1020.7 hPa  66%  17.1 km/h   0.01 mm/h  16.1km  1%  Clear 
 24/01/2018 - 23:00  -13.1°C  -20.9°C  1021.3 hPa  65%  16.4 km/h   --  16.1km  0%  Clear 
 25/01/2018 - 00:00  -13.5°C  -21.3°C  1021.7 hPa  64%  16.0 km/h   --  16.1km  2%  Clear 
 25/01/2018 - 01:00  -14.0°C  -21.9°C  1022.2 hPa  64%  15.8 km/h   0.01 mm/h  16.1km  4%  Clear 
 25/01/2018 - 02:00  -14.6°C  -22.6°C  1022.7 hPa  64%  15.8 km/h   0.01 mm/h  16.1km  3%  Clear 
 25/01/2018 - 03:00  -15.3°C  -23.6°C  1023.2 hPa  65%  16.3 km/h   0.01 mm/h  16.1km  2%  Clear 
 25/01/2018 - 04:00  -15.9°C  -24.4°C  1023.8 hPa  66%  16.8 km/h   0.01 mm/h  16.1km  2%  Clear 
 25/01/2018 - 05:00  -16.4°C  -25.1°C  1024.6 hPa  66%  16.6 km/h   --  16.1km  1%  Clear 
 25/01/2018 - 06:00  -16.9°C  -25.6°C  1025.4 hPa  66%  16.5 km/h   --  16.1km  1%  Clear 
Test

 

Past weather and reports

Past weatherFind in this section the past weather conditions, weather archive, graphics, reports and statistics.

Current conditions

Current weather condition for MontrealAll you need to know about the current weather conditions for Montreal. Weather data is updated every 10 minutes.

Weather forecast

Current Montreal weatherSince 2004, celinium.com website has provided accurate weather forecast for Montreal's island.